Terminal Aerodrome Forecast
Issued by NWS

Home | Current Version | Previous Version | Text Only | Print | Product List | Glossary On
Versions: 1 2 3 4 5 6 7 8 9 10 11 12 13 14 15 16 17 18 19 20 21 22 23 24 25 26
108
FTUS45 KTWC 220538
TAFOLS
TAF
KOLS 220538Z 2206/2306 28007KT P6SM SCT120 BKN200
     FM220900 VRB03KT P6SM SCT200
     FM221700 19006KT P6SM SKC
     FM222000 24010KT P6SM FEW080
     FM230200 VRB03KT P6SM SKC=

USA.gov is the U.S. government's official web portal to all federal, state and local government web resources and services.